createdAt,value
2022-12-13T00:01:30.405Z,54.70
2022-12-13T00:04:00.006Z,54.85
2022-12-13T00:06:28.212Z,55.25
2022-12-13T00:08:55.540Z,68.00
2022-12-13T00:11:23.071Z,52.72
2022-12-13T00:13:50.537Z,51.47
2022-12-13T00:16:22.687Z,62.72
2022-12-13T00:18:54.971Z,51.33
2022-12-13T00:21:32.974Z,58.72
2022-12-13T00:24:01.321Z,54.65
2022-12-13T00:26:31.040Z,55.67
2022-12-13T00:29:03.473Z,57.33
2022-12-13T00:34:21.119Z,57.60
2022-12-13T00:36:48.688Z,51.13
2022-12-13T00:39:16.853Z,53.47
2022-12-13T00:41:45.032Z,58.67
2022-12-13T00:44:13.663Z,61.72
2022-12-13T00:46:41.841Z,48.63
2022-12-13T00:49:11.049Z,53.78
2022-12-13T00:51:38.612Z,52.78
2022-12-13T00:54:06.564Z,47.92
2022-12-13T00:56:34.446Z,57.25
2022-12-13T00:59:01.714Z,59.03
2022-12-13T01:01:32.082Z,57.13
2022-12-13T01:04:02.364Z,55.95
2022-12-13T01:06:38.831Z,56.97
2022-12-13T01:09:10.184Z,60.80
2022-12-13T01:11:37.444Z,53.50
2022-12-13T01:14:04.988Z,57.22
2022-12-13T01:16:32.496Z,54.38
2022-12-13T01:18:59.834Z,59.03
2022-12-13T01:21:27.068Z,59.08
2022-12-13T01:24:06.822Z,59.85
2022-12-13T01:29:01.508Z,60.17
2022-12-13T01:31:28.979Z,57.60
2022-12-13T01:33:56.428Z,59.65
2022-12-13T01:36:27.816Z,63.15
2022-12-13T01:38:58.077Z,54.50
2022-12-13T01:41:28.561Z,60.50
2022-12-13T01:44:01.243Z,55.10
2022-12-13T01:46:38.223Z,55.88
2022-12-13T01:49:19.651Z,63.60
2022-12-13T01:51:48.172Z,64.25
2022-12-13T01:54:21.647Z,56.83
2022-12-13T01:56:54.088Z,66.70
2022-12-13T01:59:28.586Z,58.42
2022-12-13T02:02:00.580Z,57.00
2022-12-13T02:04:57.066Z,56.03
2022-12-13T02:07:29.624Z,64.20
2022-12-13T02:09:59.997Z,57.50
2022-12-13T02:12:30.719Z,65.72
2022-12-13T02:15:04.889Z,58.10
2022-12-13T02:17:54.402Z,58.10
2022-12-13T02:20:48.691Z,64.68
2022-12-13T02:23:30.904Z,59.60
2022-12-13T02:26:18.530Z,58.40
2022-12-13T02:28:58.279Z,60.67
2022-12-13T02:31:49.593Z,53.28
2022-12-13T02:34:34.614Z,58.15
2022-12-13T02:37:32.337Z,73.95
2022-12-13T02:40:11.471Z,66.10
2022-12-13T02:43:06.962Z,59.15
2022-12-13T02:45:47.031Z,66.07
2022-12-13T02:48:23.971Z,50.53
2022-12-13T02:50:52.720Z,41.60
2022-12-13T02:53:24.311Z,54.53
2022-12-13T02:55:51.628Z,65.57
2022-12-13T02:58:23.955Z,64.82
2022-12-13T03:01:29.081Z,59.40
2022-12-13T03:04:20.091Z,62.30
2022-12-13T03:07:07.023Z,63.70
2022-12-13T03:09:46.271Z,68.80
2022-12-13T03:12:56.496Z,60.50
2022-12-13T03:15:29.395Z,62.10
2022-12-13T03:18:18.781Z,57.55
2022-12-13T03:21:04.492Z,62.40
2022-12-13T03:23:31.781Z,57.78
2022-12-13T03:26:04.922Z,55.50
2022-12-13T03:28:32.206Z,55.80
2022-12-13T03:30:59.488Z,56.72
2022-12-13T03:33:26.725Z,77.18
2022-12-13T03:35:54.058Z,60.20
2022-12-13T03:38:23.186Z,62.45
2022-12-13T03:41:02.916Z,66.22
2022-12-13T03:43:30.390Z,59.78
2022-12-13T03:45:57.719Z,53.25
2022-12-13T03:48:25.096Z,59.95
2022-12-13T03:50:53.808Z,54.47
2022-12-13T03:53:32.551Z,54.20
2022-12-13T03:56:05.626Z,59.78
2022-12-13T03:58:37.306Z,56.80
2022-12-13T04:01:08.137Z,58.83
2022-12-13T04:03:36.280Z,59.28
2022-12-13T04:06:04.284Z,51.42
2022-12-13T04:08:31.674Z,55.20
2022-12-13T04:10:58.974Z,60.15
2022-12-13T04:13:35.301Z,55.45
2022-12-13T04:16:03.130Z,53.17
2022-12-13T04:18:30.620Z,56.08
2022-12-13T04:20:58.078Z,60.05
2022-12-13T04:23:25.325Z,49.75
2022-12-13T04:25:52.657Z,53.85
2022-12-13T04:28:21.415Z,46.78
2022-12-13T04:30:53.178Z,50.00
2022-12-13T04:33:22.617Z,51.38
2022-12-13T04:35:50.608Z,57.58
2022-12-13T04:38:18.132Z,61.72
2022-12-13T04:40:45.560Z,51.88
2022-12-13T04:43:12.884Z,60.28
2022-12-13T04:45:40.402Z,50.42
2022-12-13T04:48:08.659Z,51.40
2022-12-13T04:50:36.503Z,55.42
2022-12-13T04:53:03.821Z,50.83
2022-12-13T04:55:31.094Z,52.20
2022-12-13T04:57:58.309Z,48.03
2022-12-13T05:00:25.660Z,54.47
2022-12-13T05:02:52.915Z,50.67
2022-12-13T05:05:20.184Z,52.20
2022-12-13T05:07:47.404Z,54.72
2022-12-13T05:10:33.870Z,49.50
2022-12-13T05:13:02.837Z,48.30
2022-12-13T05:15:32.826Z,48.15
2022-12-13T05:18:09.491Z,48.63
2022-12-13T05:20:39.574Z,45.30
2022-12-13T05:23:06.966Z,46.35
2022-12-13T05:25:36.855Z,45.70
2022-12-13T05:28:09.007Z,45.45
2022-12-13T05:30:53.249Z,48.60
2022-12-13T05:33:22.764Z,46.00
2022-12-13T05:35:50.985Z,43.92
2022-12-13T05:38:20.176Z,50.70
2022-12-13T05:40:47.437Z,46.17
2022-12-13T05:43:21.473Z,51.90
2022-12-13T05:45:50.258Z,47.17
2022-12-13T05:48:24.912Z,43.10
2022-12-13T05:51:10.503Z,44.72
2022-12-13T05:53:41.320Z,43.87
2022-12-13T05:56:11.051Z,46.13
2022-12-13T05:58:39.788Z,59.03
2022-12-13T06:01:10.763Z,51.17
2022-12-13T06:03:38.489Z,46.42
2022-12-13T06:06:08.485Z,41.78
2022-12-13T06:08:36.626Z,44.80
2022-12-13T06:11:09.936Z,53.33
2022-12-13T06:13:42.366Z,50.38
2022-12-13T06:16:21.779Z,42.20
2022-12-13T06:18:57.499Z,44.28
2022-12-13T06:21:43.430Z,43.50
2022-12-13T06:24:14.948Z,43.03
2022-12-13T06:26:42.491Z,44.08
2022-12-13T06:29:23.957Z,44.30
2022-12-13T06:32:01.409Z,50.45
2022-12-13T06:34:34.818Z,48.65
2022-12-13T06:37:05.847Z,45.40
2022-12-13T06:39:33.959Z,58.58
2022-12-13T06:42:03.284Z,48.03
2022-12-13T06:44:30.739Z,49.42
2022-12-13T06:47:11.313Z,41.55
2022-12-13T06:49:41.999Z,52.30
2022-12-13T06:52:14.166Z,45.05
2022-12-13T06:54:42.556Z,45.53
2022-12-13T06:57:11.537Z,47.47
2022-12-13T06:59:39.068Z,53.70
2022-12-13T07:02:24.201Z,51.17
2022-12-13T07:04:53.645Z,52.40
2022-12-13T07:07:21.004Z,53.08
2022-12-13T07:09:48.243Z,54.65
2022-12-13T07:12:15.497Z,47.33
2022-12-13T07:14:42.828Z,52.35
2022-12-13T07:17:10.799Z,48.67
2022-12-13T07:19:38.656Z,49.33
2022-12-13T07:22:06.341Z,59.95
2022-12-13T07:24:35.495Z,46.53
2022-12-13T07:27:03.611Z,46.72
2022-12-13T07:29:30.980Z,44.13
2022-12-13T07:32:01.133Z,48.03
2022-12-13T07:34:30.199Z,40.55
2022-12-13T07:36:57.568Z,49.30
2022-12-13T07:39:28.587Z,42.45
2022-12-13T07:41:56.500Z,48.20
2022-12-13T07:44:24.688Z,61.20
2022-12-13T07:46:52.505Z,42.15
2022-12-13T07:49:19.977Z,46.75
2022-12-13T07:51:47.984Z,44.72
2022-12-13T07:54:15.329Z,46.53
2022-12-13T07:56:42.615Z,46.15
2022-12-13T07:59:10.778Z,45.58
2022-12-13T08:01:38.219Z,39.80
2022-12-13T08:04:06.059Z,40.75
2022-12-13T08:06:37.950Z,45.55
2022-12-13T08:09:05.938Z,45.10
2022-12-13T08:11:33.576Z,53.28
2022-12-13T08:14:00.806Z,40.65
2022-12-13T08:16:30.346Z,41.22
2022-12-13T08:19:01.874Z,48.00
2022-12-13T08:21:57.896Z,44.35
2022-12-13T08:24:28.021Z,49.10
2022-12-13T08:27:03.213Z,37.28
2022-12-13T08:29:34.219Z,40.65
2022-12-13T08:32:10.875Z,36.25
2022-12-13T08:34:39.004Z,39.20
2022-12-13T08:37:06.585Z,43.47
2022-12-13T08:39:36.711Z,39.13
2022-12-13T08:42:18.744Z,37.50
2022-12-13T08:44:48.797Z,42.03
2022-12-13T08:47:23.333Z,43.05
2022-12-13T08:50:04.046Z,29.23
2022-12-13T08:52:42.209Z,38.80
2022-12-13T08:55:12.172Z,40.65
2022-12-13T08:57:40.673Z,42.00
2022-12-13T09:00:11.496Z,39.25
2022-12-13T09:02:39.170Z,37.22
2022-12-13T09:05:08.217Z,43.42
2022-12-13T09:07:36.446Z,32.78
2022-12-13T09:10:25.677Z,35.53
2022-12-13T09:13:01.138Z,43.03
2022-12-13T09:15:34.390Z,47.42
2022-12-13T09:18:04.760Z,31.08
2022-12-13T09:20:41.572Z,32.67
2022-12-13T09:23:13.606Z,32.88
2022-12-13T09:26:05.220Z,32.53
2022-12-13T09:28:36.925Z,35.97
2022-12-13T09:31:12.831Z,35.03
2022-12-13T09:33:40.929Z,42.60
2022-12-13T09:36:11.053Z,36.53
2022-12-13T09:38:38.856Z,31.58
2022-12-13T09:41:30.961Z,36.35
2022-12-13T09:44:32.544Z,37.50
2022-12-13T09:47:03.808Z,33.25
2022-12-13T09:49:52.162Z,40.30
2022-12-13T09:52:23.572Z,34.22
2022-12-13T09:54:55.492Z,30.17
2022-12-13T09:57:34.145Z,32.85
2022-12-13T10:00:08.183Z,28.25
2022-12-13T10:02:49.307Z,35.33
2022-12-13T10:05:35.715Z,32.42
2022-12-13T10:08:08.266Z,26.50
2022-12-13T10:10:35.629Z,28.17
2022-12-13T10:13:25.197Z,39.70
2022-12-13T10:16:04.694Z,28.20
2022-12-13T10:18:35.768Z,54.28
2022-12-13T10:21:09.861Z,52.40
2022-12-13T10:23:59.782Z,25.52
2022-12-13T10:26:25.129Z,24.95
2022-12-13T10:29:04.110Z,33.22
2022-12-13T10:31:42.691Z,35.85
2022-12-13T10:34:35.866Z,25.05
2022-12-13T10:37:24.672Z,32.58
2022-12-13T10:39:52.017Z,25.60
2022-12-13T10:42:22.457Z,31.80
2022-12-13T10:45:10.468Z,24.45
2022-12-13T10:47:37.834Z,25.35
2022-12-13T10:50:05.636Z,30.88
2022-12-13T10:52:43.125Z,29.85
2022-12-13T10:55:34.962Z,20.08
2022-12-13T10:58:07.588Z,21.60
2022-12-13T11:00:45.364Z,28.42
2022-12-13T11:03:28.627Z,33.67
2022-12-13T11:06:18.081Z,24.70
2022-12-13T11:08:45.326Z,27.90
2022-12-13T11:11:15.128Z,30.63
2022-12-13T11:13:46.314Z,21.42
2022-12-13T11:16:50.677Z,28.48
2022-12-13T11:19:26.307Z,25.67
2022-12-13T11:21:54.391Z,24.38
2022-12-13T11:24:26.131Z,24.50
2022-12-13T11:26:58.781Z,25.13
2022-12-13T11:29:50.970Z,22.38
2022-12-13T11:32:26.861Z,21.92
2022-12-13T11:35:09.152Z,33.95
2022-12-13T11:38:01.380Z,24.70
2022-12-13T11:40:44.333Z,37.90
2022-12-13T11:43:29.301Z,27.42
2022-12-13T11:46:00.888Z,30.88
2022-12-13T11:48:41.762Z,25.52
2022-12-13T11:51:12.993Z,25.90
2022-12-13T11:53:48.170Z,30.25
2022-12-13T11:56:32.103Z,29.42
2022-12-13T11:59:31.531Z,21.85
2022-12-13T12:02:23.316Z,21.65
2022-12-13T12:05:00.374Z,28.58
2022-12-13T12:49:01.113Z,22.48
2022-12-13T12:51:48.027Z,32.00
2022-12-13T12:54:33.668Z,27.02
2022-12-13T12:57:45.410Z,30.85
2022-12-13T13:00:17.063Z,33.50
2022-12-13T13:03:22.124Z,35.05
2022-12-13T13:06:02.690Z,26.83
2022-12-13T13:08:44.327Z,26.52
2022-12-13T13:11:23.956Z,28.50
2022-12-13T13:14:01.488Z,28.83
2022-12-13T13:16:34.983Z,38.10
2022-12-13T13:19:26.161Z,29.60
2022-12-13T13:22:06.408Z,30.05
2022-12-13T13:25:11.476Z,28.48
2022-12-13T13:27:43.987Z,33.28
2022-12-13T13:30:25.363Z,31.58
2022-12-13T13:32:55.293Z,30.30
2022-12-13T13:35:33.177Z,30.02
2022-12-13T13:38:21.942Z,32.22
2022-12-13T13:40:49.702Z,34.10
2022-12-13T13:43:32.177Z,32.10
2022-12-13T13:46:00.365Z,31.88
2022-12-13T13:48:37.155Z,36.45
2022-12-13T13:52:23.745Z,34.63
2022-12-13T13:55:01.660Z,34.88
2022-12-13T13:58:09.816Z,29.42
2022-12-13T14:01:11.325Z,35.72
2022-12-13T14:03:57.688Z,36.72
2022-12-13T14:07:01.194Z,39.50
2022-12-13T14:10:05.192Z,34.45
2022-12-13T14:12:51.661Z,34.90
2022-12-13T14:15:40.473Z,34.38
2022-12-13T14:18:48.085Z,42.33
2022-12-13T14:21:49.594Z,32.85
2022-12-13T14:24:49.390Z,37.95
2022-12-13T14:27:36.938Z,45.55
2022-12-13T14:32:53.598Z,35.63
2022-12-13T14:35:26.883Z,38.92
2022-12-13T14:37:59.281Z,32.28
2022-12-13T14:40:35.455Z,39.17
2022-12-13T14:43:03.702Z,36.15
2022-12-13T14:45:32.776Z,30.40
2022-12-13T14:48:04.552Z,34.50
2022-12-13T14:50:35.973Z,38.30
2022-12-13T14:53:04.525Z,33.10
2022-12-13T14:55:37.285Z,38.13
2022-12-13T14:58:17.070Z,40.28
2022-12-13T15:00:45.967Z,32.35
2022-12-13T15:03:23.685Z,34.75
2022-12-13T15:06:02.601Z,93.85
2022-12-13T15:08:31.950Z,54.55
2022-12-13T15:11:00.763Z,35.42
2022-12-13T15:13:48.268Z,43.45
2022-12-13T15:16:26.579Z,38.85
2022-12-13T15:19:31.084Z,34.05
2022-12-13T15:22:15.078Z,34.90
2022-12-13T15:24:49.178Z,37.17
2022-12-13T15:27:24.376Z,39.33
2022-12-13T15:29:54.154Z,42.08
2022-12-13T15:32:23.183Z,38.50
2022-12-13T15:34:51.897Z,42.58
2022-12-13T15:37:32.808Z,36.97
2022-12-13T15:40:06.679Z,30.27
2022-12-13T15:42:37.044Z,38.10
2022-12-13T15:45:17.234Z,36.78
2022-12-13T15:47:46.766Z,37.25
2022-12-13T15:50:34.165Z,44.33
2022-12-13T15:53:05.017Z,36.38
2022-12-13T15:55:36.405Z,34.17
2022-12-13T15:58:04.116Z,40.75
2022-12-13T16:00:34.589Z,35.42
2022-12-13T16:03:21.689Z,35.80
2022-12-13T16:05:54.809Z,36.83
2022-12-13T16:08:32.138Z,43.38
2022-12-13T16:11:00.153Z,44.78
2022-12-13T16:13:30.265Z,41.55
2022-12-13T16:16:27.263Z,51.03
2022-12-13T16:19:00.221Z,41.10
2022-12-13T16:21:28.577Z,43.08
2022-12-13T16:23:55.938Z,66.18
2022-12-13T16:26:28.217Z,68.82
2022-12-13T16:28:59.280Z,39.45
2022-12-13T16:31:31.276Z,34.75
2022-12-13T16:33:58.653Z,41.88
2022-12-13T16:36:26.655Z,40.03
2022-12-13T16:38:53.944Z,37.65
2022-12-13T16:41:22.160Z,45.90
2022-12-13T16:43:56.228Z,46.05
2022-12-13T16:47:14.341Z,48.38
2022-12-13T16:49:21.759Z,33.72
2022-12-13T16:51:49.521Z,45.17
2022-12-13T16:54:18.534Z,47.15
2022-12-13T16:56:46.483Z,33.65
2022-12-13T16:59:17.596Z,46.97
2022-12-13T17:01:45.608Z,45.40
2022-12-13T17:04:21.022Z,50.85
2022-12-13T17:06:54.792Z,40.05
2022-12-13T17:09:24.051Z,33.35
2022-12-13T17:11:51.750Z,42.40
2022-12-13T17:14:19.015Z,46.10
2022-12-13T17:16:46.349Z,38.85
2022-12-13T17:19:15.569Z,44.20
2022-12-13T17:21:43.428Z,42.05
2022-12-13T17:24:10.740Z,44.67
2022-12-13T17:26:37.992Z,43.65
2022-12-13T17:29:05.415Z,37.13
2022-12-13T17:31:35.860Z,43.03
2022-12-13T17:34:04.391Z,48.13
2022-12-13T17:36:32.217Z,53.47
2022-12-13T17:38:59.432Z,66.88
2022-12-13T17:41:26.744Z,51.88
2022-12-13T17:43:59.261Z,43.35
2022-12-13T17:46:26.554Z,54.50
2022-12-13T17:48:53.833Z,48.80
2022-12-13T17:51:21.050Z,50.40
2022-12-13T17:53:48.285Z,51.65
2022-12-13T17:56:16.125Z,42.85
2022-12-13T17:58:43.887Z,52.25
2022-12-13T18:01:16.610Z,60.83
2022-12-13T18:03:44.826Z,57.97
2022-12-13T18:06:12.191Z,52.13
2022-12-13T18:08:40.512Z,67.50
2022-12-13T18:11:31.643Z,57.70
2022-12-13T18:13:56.689Z,57.35
2022-12-13T18:16:30.331Z,52.63
2022-12-13T18:19:01.220Z,59.25
2022-12-13T18:21:28.522Z,56.63
2022-12-13T18:23:56.276Z,53.78
2022-12-13T18:26:24.760Z,58.13
2022-12-13T18:28:52.297Z,49.88
2022-12-13T18:31:24.026Z,54.67
2022-12-13T18:33:53.431Z,56.80
2022-12-13T18:36:22.769Z,56.53
2022-12-13T18:38:50.204Z,51.47
2022-12-13T18:41:23.300Z,70.88
2022-12-13T18:43:59.869Z,67.70
2022-12-13T18:46:29.575Z,51.75
2022-12-13T18:48:57.567Z,58.97
2022-12-13T18:51:25.395Z,53.65
2022-12-13T18:53:53.496Z,58.70
2022-12-13T18:56:20.910Z,60.88
2022-12-13T18:58:49.427Z,61.25
2022-12-13T19:01:17.593Z,61.08
2022-12-13T19:03:46.651Z,59.55
2022-12-13T19:06:17.101Z,50.20
2022-12-13T19:08:48.153Z,58.92
2022-12-13T19:11:15.665Z,53.88
2022-12-13T19:13:43.128Z,57.22
2022-12-13T19:16:12.794Z,57.10
2022-12-13T19:18:41.361Z,58.60
2022-12-13T19:21:12.347Z,60.15
2022-12-13T19:23:40.949Z,49.58
2022-12-13T19:26:10.428Z,57.88
2022-12-13T19:28:41.335Z,62.17
2022-12-13T19:31:11.010Z,51.05
2022-12-13T19:33:38.874Z,54.17
2022-12-13T19:36:06.719Z,63.65
2022-12-13T19:38:34.437Z,54.78
2022-12-13T19:41:08.731Z,57.28
2022-12-13T19:43:36.030Z,49.67
2022-12-13T19:46:03.712Z,55.63
2022-12-13T19:48:31.408Z,53.63
2022-12-13T19:51:00.249Z,57.60
2022-12-13T19:53:29.243Z,54.72
2022-12-13T19:55:56.977Z,53.75
2022-12-13T19:58:25.060Z,47.30
2022-12-13T20:00:52.672Z,52.90
2022-12-13T20:03:20.132Z,54.33
2022-12-13T20:05:57.524Z,42.58
2022-12-13T20:08:24.986Z,86.82
2022-12-13T20:11:07.194Z,79.40
2022-12-13T20:13:35.563Z,55.28
2022-12-13T20:16:04.795Z,66.75
2022-12-13T20:18:32.980Z,46.05
2022-12-13T20:21:13.471Z,48.40
2022-12-13T20:23:48.703Z,53.95
2022-12-13T20:26:21.050Z,55.60
2022-12-13T20:28:49.269Z,53.05
2022-12-13T20:31:25.124Z,54.97
2022-12-13T20:34:03.764Z,45.95
2022-12-13T20:36:31.466Z,57.33
2022-12-13T20:39:01.389Z,54.38
2022-12-13T20:41:30.400Z,49.65
2022-12-13T20:43:59.389Z,56.88
2022-12-13T20:46:28.577Z,54.85
2022-12-13T20:48:57.718Z,51.22
2022-12-13T20:51:27.077Z,54.38
2022-12-13T20:53:54.886Z,48.75
2022-12-13T20:56:24.521Z,45.03
2022-12-13T20:58:52.164Z,53.40
2022-12-13T21:01:30.924Z,52.22
2022-12-13T21:04:00.261Z,52.58
2022-12-13T21:06:28.769Z,57.25
2022-12-13T21:08:59.933Z,48.67
2022-12-13T21:11:41.666Z,64.00
2022-12-13T21:14:23.467Z,60.78
2022-12-13T21:16:56.334Z,57.70
2022-12-13T21:19:33.104Z,68.80
2022-12-13T21:22:03.369Z,64.60
2022-12-13T21:24:30.604Z,54.63
2022-12-13T21:26:57.963Z,58.53
2022-12-13T21:29:25.281Z,55.58
2022-12-13T21:31:53.355Z,64.47
2022-12-13T21:34:22.101Z,48.88
2022-12-13T21:36:53.204Z,100.57
2022-12-13T21:39:23.008Z,74.65
2022-12-13T21:41:51.412Z,59.17
2022-12-13T21:44:19.650Z,53.20
2022-12-13T21:47:11.354Z,52.05
2022-12-13T21:49:35.118Z,49.38
2022-12-13T21:52:02.444Z,64.68
2022-12-13T21:54:29.683Z,47.72
2022-12-13T21:57:15.681Z,50.15
2022-12-13T21:59:43.158Z,55.10
2022-12-13T22:02:18.518Z,48.72
2022-12-13T22:04:54.890Z,62.50
2022-12-13T22:07:28.004Z,54.23
2022-12-13T22:09:56.216Z,58.60
2022-12-13T22:12:35.846Z,62.20
2022-12-13T22:15:21.922Z,56.97
2022-12-13T22:17:49.138Z,53.05
2022-12-13T22:20:16.459Z,52.83
2022-12-13T22:22:44.325Z,52.03
2022-12-13T22:25:12.147Z,53.10
2022-12-13T22:27:39.384Z,48.83
2022-12-13T22:30:07.450Z,49.00
2022-12-13T22:32:34.668Z,49.50
2022-12-13T22:35:02.065Z,44.97
2022-12-13T22:37:29.568Z,45.88
2022-12-13T22:39:56.819Z,52.25
2022-12-13T22:42:24.109Z,63.90
2022-12-13T22:44:51.335Z,52.70
2022-12-13T22:47:19.164Z,53.00
2022-12-13T22:49:48.876Z,49.42
2022-12-13T22:52:17.181Z,56.58
2022-12-13T22:54:44.453Z,44.75
2022-12-13T22:57:11.764Z,58.13
2022-12-13T22:59:39.185Z,44.35
2022-12-13T23:02:06.649Z,46.83
2022-12-13T23:04:33.981Z,52.38
2022-12-13T23:07:01.195Z,49.05
2022-12-13T23:09:28.442Z,46.45
2022-12-13T23:12:14.299Z,46.75
2022-12-13T23:14:41.581Z,50.33
2022-12-13T23:17:08.864Z,47.90
2022-12-13T23:19:49.013Z,46.47
2022-12-13T23:22:21.136Z,52.97
2022-12-13T23:24:49.313Z,45.65
2022-12-13T23:27:17.318Z,55.28
2022-12-13T23:29:44.738Z,44.35
2022-12-13T23:32:12.621Z,49.72
2022-12-13T23:34:39.860Z,50.50
2022-12-13T23:37:07.064Z,46.60
2022-12-13T23:39:34.287Z,50.33
2022-12-13T23:42:01.532Z,57.85
2022-12-13T23:44:28.754Z,44.10
2022-12-13T23:46:56.077Z,53.38
2022-12-13T23:49:23.441Z,45.47
2022-12-13T23:51:50.686Z,40.40
2022-12-13T23:54:19.647Z,45.65
2022-12-13T23:56:47.648Z,42.67
2022-12-13T23:59:14.917Z,36.75
